Time;durP1;ratioP1;P1;durP2;ratioP2;P2;SDS_P1;SDS_P2;PMS_P1;PMS_P2;Temp;Humidity;BMP_temperature;BMP_pressure;BME280_temperature;BME280_humidity;BME280_pressure;Samples;Min_cycle;Max_cycle;Signal;HPM_P1;HPM_P2
2022/05/29 00:02:09;;;;;;;3.17;1.62;;;;;;;8.10;71.59;96265.75;1772105;79;20990;-83
2022/05/29 00:04:35;;;;;;;3.15;1.42;;;;;;;8.06;71.74;96263.19;1757749;81;21039;-83
2022/05/29 00:07:01;;;;;;;5.75;1.40;;;;;;;8.07;71.77;96258.83;1757119;81;20995;-83
2022/05/29 00:09:34;;;;;;;3.72;1.40;;;;;;;8.07;71.69;96257.53;1757637;82;21362;-83
2022/05/29 00:12:01;;;;;;;4.17;1.30;;;;;;;8.08;71.81;96251.37;1757796;82;21137;-83
2022/05/29 00:14:27;;;;;;;5.40;1.30;;;;;;;8.07;71.70;96257.53;1758253;82;22059;-83
2022/05/29 00:16:53;;;;;;;2.08;1.35;;;;;;;8.03;71.50;96262.24;1787183;79;21002;-83
2022/05/29 00:19:19;;;;;;;2.20;1.25;;;;;;;8.00;71.44;96261.30;1803070;79;20946;-83
2022/05/29 00:21:45;;;;;;;3.15;1.57;;;;;;;7.97;71.73;96262.09;1776156;79;20970;-83
2022/05/29 00:24:10;;;;;;;4.03;1.60;;;;;;;7.94;71.73;96263.72;1803102;79;21459;-82
2022/05/29 00:26:36;;;;;;;10.58;6.03;;;;;;;7.90;71.89;96267.63;1765293;81;21022;-83
2022/05/29 00:29:02;;;;;;;6.97;2.80;;;;;;;7.88;71.55;96272.97;1776091;81;21030;-83
2022/05/29 00:31:28;;;;;;;3.17;1.30;;;;;;;7.88;72.13;96266.50;1747792;81;20931;-83
2022/05/29 00:33:53;;;;;;;3.98;2.25;;;;;;;7.86;72.35;96267.16;1775932;80;21011;-83
2022/05/29 00:36:19;;;;;;;6.42;1.82;;;;;;;7.85;72.44;96268.63;1776626;80;21026;-83
2022/05/29 00:38:46;;;;;;;5.00;1.52;;;;;;;7.88;72.54;96273.45;1776570;81;21046;-83
2022/05/29 00:41:31;;;;;;;3.62;1.82;;;;;;;7.87;72.40;96279.13;1794962;79;21218;-83
2022/05/29 00:44:29;;;;;;;4.58;1.70;;;;;;;7.85;72.85;96279.78;1798103;80;21032;-83
2022/05/29 00:47:00;;;;;;;4.20;1.52;;;;;;;7.84;73.01;96279.46;1798145;80;20953;-83
2022/05/29 00:49:32;;;;;;;3.33;1.60;;;;;;;7.86;72.79;96274.92;1797981;80;21045;-83
2022/05/29 00:52:04;;;;;;;;;;;;;;;7.90;72.90;96282.66;1800616;79;21017;-83
2022/05/29 00:54:37;;;;;;;5.45;2.65;;;;;;;7.94;72.49;96286.52;1770506;80;20094;-82
2022/05/29 00:57:03;;;;;;;3.27;2.12;;;;;;;7.94;72.46;96280.05;1798140;80;20978;-83
2022/05/29 00:59:31;;;;;;;3.17;1.85;;;;;;;7.93;72.68;96279.73;1797745;80;21074;-82
2022/05/29 01:01:58;;;;;;;5.87;2.10;;;;;;;7.93;72.85;96278.93;1797871;80;21458;-83
2022/05/29 01:04:23;;;;;;;2.52;1.95;;;;;;;7.92;72.66;96266.48;1798165;80;21045;-83
2022/05/29 01:06:49;;;;;;;4.75;1.92;;;;;;;7.89;72.94;96275.07;1798062;80;21045;-82
2022/05/29 01:09:15;;;;;;;6.00;2.30;;;;;;;7.85;73.01;96277.68;1797863;80;21420;-82
2022/05/29 01:11:46;;;;;;;7.25;1.98;;;;;;;7.82;73.08;96273.16;1798030;80;21061;-83
2022/05/29 01:14:23;;;;;;;5.50;2.92;;;;;;;7.82;72.99;96269.77;1798074;80;21100;-83
2022/05/29 01:17:07;;;;;;;4.58;2.45;;;;;;;7.81;72.82;96270.75;1792511;80;21029;-83
2022/05/29 01:20:10;;;;;;;5.35;2.30;;;;;;;7.80;73.21;96270.40;1798282;80;21009;-83
2022/05/29 01:22:53;;;;;;;4.12;2.25;;;;;;;7.76;73.35;96271.23;1797396;80;20985;-82
2022/05/29 01:25:43;;;;;;;4.28;2.35;;;;;;;7.71;73.49;96273.52;1798164;80;21116;-83
2022/05/29 01:28:46;;;;;;;3.40;2.60;;;;;;;7.64;73.45;96271.25;1797958;80;21029;-83
2022/05/29 01:31:33;;;;;;;6.53;2.60;;;;;;;7.58;73.55;96276.30;1798142;80;21001;-83
2022/05/29 01:34:04;;;;;;;6.72;2.52;;;;;;;7.52;73.88;96273.41;1798066;80;21025;-83
2022/05/29 01:36:44;;;;;;;7.25;2.50;;;;;;;7.51;73.78;96271.80;1798372;80;21041;-83
2022/05/29 01:39:31;;;;;;;4.72;2.45;;;;;;;7.50;73.96;96271.96;1797514;80;20997;-83
2022/05/29 01:42:00;;;;;;;7.97;2.30;;;;;;;7.47;73.98;96270.48;1797819;80;21096;-83
2022/05/29 01:44:44;;;;;;;5.40;2.33;;;;;;;7.42;73.97;96277.94;1784036;80;21418;-83
2022/05/29 01:47:14;;;;;;;4.55;2.52;;;;;;;7.38;74.05;96269.39;1798198;80;20945;-82
2022/05/29 01:49:46;;;;;;;7.55;2.30;;;;;;;7.33;74.17;96269.89;1798072;80;21347;-83
2022/05/29 01:52:28;;;;;;;4.27;1.60;;;;;;;7.28;74.21;96270.04;1798316;80;21061;-82
2022/05/29 01:54:59;;;;;;;5.10;2.55;;;;;;;7.25;74.31;96272.47;1796385;80;21070;-82
2022/05/29 01:57:29;;;;;;;9.08;2.50;;;;;;;7.22;74.49;96273.61;1796287;80;21345;-82
2022/05/29 01:59:59;;;;;;;4.62;2.37;;;;;;;7.22;74.48;96267.64;1795958;80;20979;-82
2022/05/29 02:02:39;;;;;;;6.30;2.50;;;;;;;7.21;74.58;96266.83;1796176;80;20995;-83
2022/05/29 02:05:13;;;;;;;3.75;2.10;;;;;;;7.21;74.65;96273.29;1796345;80;21357;-83
2022/05/29 02:07:48;;;;;;;5.37;2.45;;;;;;;7.16;74.54;96272.98;1796278;80;21002;-83
2022/05/29 02:10:28;;;;;;;6.97;2.62;;;;;;;7.12;74.84;96271.67;1750016;82;20964;-83
2022/05/29 02:13:05;;;;;;;5.10;2.98;;;;;;;7.06;74.89;96273.63;1750110;82;21457;-83
2022/05/29 02:15:40;;;;;;;5.45;2.37;;;;;;;7.03;75.08;96277.02;1758280;81;20972;-82
2022/05/29 02:18:11;;;;;;;5.03;2.83;;;;;;;7.01;75.18;96268.63;1757833;80;21051;-82
2022/05/29 02:20:41;;;;;;;;;;;;;;;7.00;75.21;96267.02;1778403;81;20991;-83
2022/05/29 02:23:15;;;;;;;4.03;2.40;;;;;;;7.00;75.22;96269.11;1775889;81;20386;-82
2022/05/29 02:25:41;;;;;;;5.03;2.42;;;;;;;6.99;75.34;96272.64;1774577;80;21401;-83
2022/05/29 02:28:14;;;;;;;4.87;2.67;;;;;;;6.98;75.38;96277.97;1782038;80;20974;-83
2022/05/29 02:30:51;;;;;;;6.72;2.60;;;;;;;6.95;75.54;96273.94;1802837;79;21006;-83
2022/05/29 02:33:22;;;;;;;4.03;2.40;;;;;;;6.92;75.71;96266.52;1796377;80;21392;-82
2022/05/29 02:35:56;;;;;;;4.75;2.27;;;;;;;6.88;75.85;96267.33;1802982;80;20975;-82
2022/05/29 02:38:42;;;;;;;5.92;2.10;;;;;;;6.86;75.89;96277.02;1803250;80;20999;-83
2022/05/29 02:41:13;;;;;;;5.47;2.20;;;;;;;6.86;75.85;96278.80;1802702;80;21046;-83
2022/05/29 02:43:53;;;;;;;4.20;2.27;;;;;;;6.89;75.94;96278.47;1803067;80;21002;-83
2022/05/29 02:46:48;;;;;;;4.35;2.00;;;;;;;6.89;75.95;96280.56;1803046;80;20990;-83
2022/05/29 02:49:25;;;;;;;4.58;2.00;;;;;;;6.88;76.02;96276.38;1803065;80;20947;-82
2022/05/29 02:51:55;;;;;;;6.08;1.92;;;;;;;6.86;75.95;96276.21;1802858;80;21044;-82
2022/05/29 02:54:25;;;;;;;6.12;2.72;;;;;;;6.82;76.12;96273.61;1786316;80;21405;-82
2022/05/29 02:56:55;;;;;;;4.20;1.80;;;;;;;6.79;75.99;96279.91;1786102;80;21338;-82
2022/05/29 02:59:24;;;;;;;3.42;1.67;;;;;;;6.77;76.11;96284.42;1768398;81;21020;-82
2022/05/29 03:02:18;;;;;;;7.40;1.77;;;;;;;6.78;76.03;96287.33;1801688;80;21068;-82
2022/05/29 03:05:06;;;;;;;3.87;1.30;;;;;;;6.79;75.95;96281.68;1786569;80;21022;-82
2022/05/29 03:08:04;;;;;;;7.03;1.70;;;;;;;6.81;76.26;96281.03;1786242;80;21395;-82
2022/05/29 03:10:37;;;;;;;5.42;1.75;;;;;;;6.81;76.68;96283.61;1786466;80;21018;-82
2022/05/29 03:13:24;;;;;;;2.98;1.50;;;;;;;6.77;76.52;96279.27;1786391;80;20995;-81
2022/05/29 03:16:13;;;;;;;4.83;1.82;;;;;;;6.73;76.49;96279.75;1785716;80;20968;-82
2022/05/29 03:18:58;;;;;;;4.10;1.25;;;;;;;6.68;76.60;96278.95;1799098;79;20993;-82
2022/05/29 03:21:49;;;;;;;3.83;2.22;;;;;;;6.66;76.75;96276.98;1801188;79;21037;-82
2022/05/29 03:24:55;;;;;;;4.37;1.62;;;;;;;6.66;76.72;96273.59;1786671;80;21031;-82
2022/05/29 03:27:41;;;;;;;5.15;1.65;;;;;;;6.66;76.76;96277.46;1750149;80;21065;-82
2022/05/29 03:30:12;;;;;;;4.25;2.02;;;;;;;6.66;76.83;96276.98;1771828;80;20968;-82
2022/05/29 03:32:38;;;;;;;3.08;1.65;;;;;;;6.66;76.89;96278.27;1734262;80;21820;-82
2022/05/29 03:35:30;;;;;;;7.17;1.75;;;;;;;6.65;76.96;96275.84;1769358;80;20971;-82
2022/05/29 03:37:56;;;;;;;;;;;;;;;6.63;77.08;96275.53;1758332;81;20974;-82
2022/05/29 03:40:23;;;;;;;5.03;1.67;;;;;;;6.64;77.13;96269.88;1768713;81;20093;-82
2022/05/29 03:42:49;;;;;;;4.35;1.40;;;;;;;6.62;77.12;96267.46;1768132;81;21418;-82
2022/05/29 03:45:15;;;;;;;5.40;1.70;;;;;;;6.66;77.15;96272.30;1780040;80;20978;-83
2022/05/29 03:47:40;;;;;;;3.40;1.57;;;;;;;6.67;77.15;96273.45;1787579;80;20901;-83
2022/05/29 03:50:10;;;;;;;3.45;2.55;;;;;;;6.69;77.35;96272.81;1787380;80;21023;-83
2022/05/29 03:52:36;;;;;;;4.03;2.17;;;;;;;6.69;77.52;96274.11;1783381;80;21011;-83
2022/05/29 03:55:03;;;;;;;7.53;2.00;;;;;;;6.69;77.67;96276.69;1775108;80;20999;-82
2022/05/29 03:57:28;;;;;;;4.28;1.50;;;;;;;6.70;77.88;96277.49;1776412;80;20948;-82
2022/05/29 03:59:55;;;;;;;3.95;1.40;;;;;;;6.73;78.02;96281.04;1776255;80;21043;-83
2022/05/29 04:02:20;;;;;;;3.27;1.17;;;;;;;6.76;78.09;96273.77;1776261;80;21370;-83
2022/05/29 04:04:46;;;;;;;2.25;1.30;;;;;;;6.81;78.19;96276.67;1776039;81;20975;-82
2022/05/29 04:07:12;;;;;;;4.75;1.50;;;;;;;6.85;78.30;96273.31;1775959;80;20985;-82
2022/05/29 04:12:22;;;;;;;4.45;2.17;;;;;;;6.89;78.51;96275.40;1774686;81;21001;-83
2022/05/29 04:14:48;;;;;;;6.37;1.70;;;;;;;6.87;78.62;96281.22;1774439;81;20984;-83
2022/05/29 04:17:17;;;;;;;4.72;1.80;;;;;;;6.88;78.81;96276.86;1775085;80;21349;-83
2022/05/29 04:19:44;;;;;;;4.53;1.42;;;;;;;6.90;78.91;96277.50;1787517;80;20998;-83
2022/05/29 04:22:21;;;;;;;5.45;1.27;;;;;;;6.93;79.04;96270.23;1785992;80;21043;-83
2022/05/29 04:24:46;;;;;;;4.97;1.67;;;;;;;6.98;79.17;96274.09;1782111;79;20967;-82
2022/05/29 04:27:14;;;;;;;4.45;1.50;;;;;;;7.04;79.35;96274.27;1803218;79;21321;-83
2022/05/29 04:29:40;;;;;;;4.78;1.37;;;;;;;7.09;79.40;96274.58;1794089;79;20908;-83
2022/05/29 04:34:56;;;;;;;3.37;1.35;;;;;;;7.20;79.82;96275.55;1798110;80;21033;-83
2022/05/29 04:37:22;;;;;;;7.20;2.92;;;;;;;7.21;80.01;96268.13;1797299;78;20965;-83
2022/05/29 04:39:48;;;;;;;2.98;1.10;;;;;;;7.28;80.04;96276.50;1797743;80;21033;-84
2022/05/29 04:42:15;;;;;;;3.33;1.20;;;;;;;7.32;80.13;96277.33;1798095;80;21046;-83
2022/05/29 04:44:40;;;;;;;5.47;1.60;;;;;;;7.37;79.98;96277.63;1798079;80;21298;-83
2022/05/29 04:47:07;;;;;;;3.55;1.45;;;;;;;7.43;80.11;96273.57;1797908;80;21105;-83
2022/05/29 04:49:32;;;;;;;8.85;1.50;;;;;;;7.51;79.84;96277.45;1797930;80;21469;-83
2022/05/29 04:51:58;;;;;;;4.40;1.52;;;;;;;7.55;79.91;96270.97;1771448;80;20974;-83
2022/05/29 04:54:24;;;;;;;5.17;1.30;;;;;;;7.57;79.90;96275.48;1795946;80;21370;-83
2022/05/29 04:56:50;;;;;;;3.08;1.20;;;;;;;7.61;80.11;96275.95;1795797;80;20955;-83
2022/05/29 04:59:16;;;;;;;3.42;0.90;;;;;;;7.64;80.10;96282.89;1795917;80;21403;-83
2022/05/29 05:01:42;;;;;;;4.42;1.57;;;;;;;7.64;80.22;96267.86;1788690;80;20962;-83
2022/05/29 05:04:08;;;;;;;3.62;1.00;;;;;;;7.71;80.45;96275.30;1794725;80;20970;-82
2022/05/29 05:06:33;;;;;;;3.65;1.10;;;;;;;7.76;80.39;96271.72;1794045;80;21361;-83
2022/05/29 05:09:00;;;;;;;3.75;1.12;;;;;;;7.81;80.52;96272.84;1794006;79;20939;-83
2022/05/29 05:11:26;;;;;;;3.52;1.07;;;;;;;7.90;80.68;96268.44;1767677;81;20982;-82
2022/05/29 05:13:52;;;;;;;2.45;1.30;;;;;;;7.94;80.59;96267.61;1795396;80;21435;-83
2022/05/29 05:16:18;;;;;;;4.03;1.57;;;;;;;7.95;80.50;96266.63;1787649;80;20975;-83
2022/05/29 05:18:43;;;;;;;4.15;1.42;;;;;;;7.96;80.78;96271.63;1736539;82;21073;-83
2022/05/29 05:21:09;;;;;;;2.02;1.10;;;;;;;7.99;80.16;96264.05;1736168;81;21008;-83
2022/05/29 05:23:35;;;;;;;4.25;0.98;;;;;;;8.06;80.29;96270.15;1767758;80;21437;-83
2022/05/29 05:26:03;;;;;;;2.67;1.27;;;;;;;8.14;80.26;96268.84;1792525;80;21055;-83
2022/05/29 05:28:29;;;;;;;3.52;1.15;;;;;;;8.20;80.58;96268.15;1789433;80;21513;-83
2022/05/29 05:30:54;;;;;;;3.62;1.40;;;;;;;8.27;80.89;96262.59;1789346;80;21023;-83
2022/05/29 05:33:20;;;;;;;7.40;1.70;;;;;;;8.34;80.47;96270.54;1789599;80;21094;-83
2022/05/29 05:35:46;;;;;;;3.72;1.87;;;;;;;8.38;79.81;96270.51;1793393;80;21086;-83
2022/05/29 05:38:12;;;;;;;2.77;1.30;;;;;;;8.46;80.36;96278.25;1792165;79;21015;-83
2022/05/29 05:40:38;;;;;;;5.75;1.40;;;;;;;8.57;80.53;96273.14;1776572;81;21064;-83
2022/05/29 05:43:05;;;;;;;3.20;1.40;;;;;;;8.66;80.18;96271.64;1775842;79;20964;-83
2022/05/29 05:45:31;;;;;;;5.15;1.70;;;;;;;8.77;79.95;96264.42;1776366;79;21006;-83
2022/05/29 05:47:57;;;;;;;5.58;1.50;;;;;;;8.87;79.55;96266.30;1776454;81;21441;-82
2022/05/29 05:50:23;;;;;;;5.10;2.08;;;;;;;8.96;77.76;96263.48;1758945;80;21118;-82
2022/05/29 05:52:48;;;;;;;5.25;1.50;;;;;;;9.07;76.68;96270.52;1773833;80;21095;-83
2022/05/29 05:55:14;;;;;;;4.53;2.20;;;;;;;9.15;77.29;96274.35;1787604;80;21113;-83
2022/05/29 05:57:40;;;;;;;6.28;2.30;;;;;;;9.21;76.00;96267.16;1771399;80;21330;-83
2022/05/29 06:00:10;;;;;;;5.05;1.87;;;;;;;9.27;75.13;96272.47;1761448;80;20992;-83
2022/05/29 06:02:36;;;;;;;3.75;1.70;;;;;;;9.35;73.81;96270.77;1760720;79;21406;-83
2022/05/29 06:05:02;;;;;;;5.40;2.55;;;;;;;9.41;74.40;96263.56;1760699;80;21023;-83
2022/05/29 06:07:28;;;;;;;4.62;1.50;;;;;;;9.47;74.69;96262.38;1786044;80;20924;-83
2022/05/29 06:09:54;;;;;;;8.30;3.25;;;;;;;9.55;73.86;96266.17;1782021;80;20947;-83
2022/05/29 06:12:21;;;;;;;6.45;3.30;;;;;;;9.65;73.51;96269.02;1786301;80;21002;-83
2022/05/29 06:14:47;;;;;;;5.00;2.45;;;;;;;9.72;73.01;96269.41;1779650;80;21369;-83
2022/05/29 06:17:12;;;;;;;7.22;2.90;;;;;;;9.79;72.32;96266.92;1759529;80;20964;-83
2022/05/29 06:19:38;;;;;;;13.43;6.58;;;;;;;9.85;71.97;96266.99;1769088;80;20965;-83
2022/05/29 06:22:04;;;;;;;10.15;5.08;;;;;;;9.91;71.39;96270.65;1773569;80;20999;-82
2022/05/29 06:24:30;;;;;;;6.17;2.08;;;;;;;9.97;70.87;96267.35;1751298;81;20946;-83
2022/05/29 06:26:58;;;;;;;4.45;2.25;;;;;;;10.02;70.50;96268.10;1774993;80;21640;-83
2022/05/29 06:29:23;;;;;;;6.58;3.10;;;;;;;10.09;71.64;96265.11;1778650;80;20993;-83
2022/05/29 06:31:49;;;;;;;5.75;2.17;;;;;;;10.12;71.36;96262.14;1786943;80;21364;-83
2022/05/29 06:34:15;;;;;;;5.75;2.12;;;;;;;10.18;71.60;96259.62;1786970;80;21380;-83
2022/05/29 06:36:41;;;;;;;7.20;1.77;;;;;;;10.25;70.82;96260.20;1785392;80;21037;-83
2022/05/29 06:39:06;;;;;;;5.33;1.80;;;;;;;10.30;69.81;96254.80;1773210;79;21058;-83
2022/05/29 06:41:34;;;;;;;6.12;1.57;;;;;;;10.39;69.47;96260.67;1763004;80;21486;-83
2022/05/29 06:44:01;;;;;;;4.15;1.70;;;;;;;10.45;70.89;96256.06;1776032;80;21088;-83
2022/05/29 06:46:26;;;;;;;3.50;1.80;;;;;;;10.52;71.95;96256.92;1758238;80;21456;-83
2022/05/29 06:48:52;;;;;;;4.35;2.05;;;;;;;10.58;71.08;96254.91;1756413;80;21063;-83
2022/05/29 06:51:22;;;;;;;8.18;2.80;;;;;;;10.65;69.72;96253.66;1745330;80;20983;-83
2022/05/29 06:53:49;;;;;;;14.05;5.75;;;;;;;10.71;68.74;96252.41;1760516;80;21047;-82
2022/05/29 06:56:17;;;;;;;8.30;3.90;;;;;;;10.83;69.54;96260.53;1776424;79;20975;-83
2022/05/29 06:58:42;;;;;;;5.90;3.17;;;;;;;10.94;69.21;96256.64;1774286;80;20946;-83
2022/05/29 07:06:59;;;;;;;4.42;2.22;;;;;;;11.22;66.85;96254.85;1734036;81;21710;-83
2022/05/29 07:09:36;;;;;;;4.12;1.92;;;;;;;11.32;66.63;96251.44;1745775;81;20971;-83
2022/05/29 07:12:21;;;;;;;4.10;2.15;;;;;;;11.41;66.93;96250.81;1757647;81;20944;-83
2022/05/29 07:14:53;;;;;;;4.58;1.80;;;;;;;11.47;65.63;96244.84;1753389;81;21323;-83
2022/05/29 07:17:18;;;;;;;;;;;;;;;11.50;65.66;96239.75;1755636;81;21319;-83
2022/05/29 07:19:45;;;;;;;6.42;2.08;;;;;;;11.58;66.00;96240.91;1747850;81;20133;-83
2022/05/29 07:22:11;;;;;;;6.78;1.82;;;;;;;11.63;65.30;96225.52;1737927;81;21003;-83
2022/05/29 07:24:38;;;;;;;4.87;1.65;;;;;;;11.56;64.96;96229.40;1761731;80;21003;-83
2022/05/29 07:27:05;;;;;;;6.58;1.87;;;;;;;11.49;64.28;96237.64;1754519;80;21015;-83
2022/05/29 07:29:31;;;;;;;6.55;2.27;;;;;;;11.36;65.10;96233.64;1765333;80;20988;-83
2022/05/29 07:31:57;;;;;;;5.37;1.95;;;;;;;11.43;65.00;96231.41;1772959;80;21896;-83
2022/05/29 07:34:24;;;;;;;3.58;1.57;;;;;;;11.51;65.69;96235.65;1749938;81;21446;-83
2022/05/29 07:36:51;;;;;;;3.50;2.10;;;;;;;11.56;65.22;96229.89;1754931;81;21082;-83
2022/05/29 07:39:19;;;;;;;5.03;1.95;;;;;;;11.49;64.66;96238.14;1751366;81;20998;-83
2022/05/29 07:44:28;;;;;;;5.17;1.60;;;;;;;11.46;64.28;96229.42;1732135;81;20930;-84
2022/05/29 07:46:54;;;;;;;3.52;1.77;;;;;;;11.54;64.06;96239.66;1753940;80;20946;-83
2022/05/29 07:49:21;;;;;;;3.70;2.22;;;;;;;11.42;63.71;96232.41;1780736;79;21325;-83
2022/05/29 07:51:48;;;;;;;4.58;1.62;;;;;;;11.36;64.38;96234.45;1793177;80;20998;-83
2022/05/29 07:54:14;;;;;;;2.58;1.47;;;;;;;11.36;65.20;96237.05;1771884;79;20993;-84
2022/05/29 07:56:39;;;;;;;3.17;1.65;;;;;;;11.30;65.88;96235.22;1781783;80;21000;-83
2022/05/29 07:59:05;;;;;;;4.20;1.70;;;;;;;11.25;65.76;96238.89;1798260;79;20946;-84
2022/05/29 08:01:31;;;;;;;2.67;1.40;;;;;;;11.22;66.48;96239.25;1788686;78;20923;-83
2022/05/29 08:03:57;;;;;;;4.00;1.52;;;;;;;11.34;67.16;96239.04;1773902;80;21313;-84
2022/05/29 08:06:23;;;;;;;4.42;1.65;;;;;;;11.48;68.00;96236.53;1783712;79;20962;-84
2022/05/29 08:08:48;;;;;;;3.27;1.55;;;;;;;11.51;65.08;96233.05;1793086;80;20931;-84
2022/05/29 08:11:17;;;;;;;4.55;1.72;;;;;;;11.49;66.45;96231.63;1793644;80;20985;-84
2022/05/29 08:13:42;;;;;;;5.97;1.80;;;;;;;11.67;67.41;96226.23;1779990;80;20993;-83
2022/05/29 08:16:07;;;;;;;3.27;1.30;;;;;;;11.96;67.73;96221.31;1797604;79;20999;-84
2022/05/29 08:18:33;;;;;;;3.35;1.37;;;;;;;12.21;67.79;96216.41;1778166;79;21274;-84
2022/05/29 08:20:59;;;;;;;4.42;2.00;;;;;;;12.48;65.31;96222.98;1795250;79;20902;-84
2022/05/29 08:23:26;;;;;;;2.87;1.60;;;;;;;12.73;63.22;96215.41;1793164;79;20977;-84
2022/05/29 08:31:12;;;;;;;3.65;1.50;;;;;;;13.44;63.51;96216.42;1797358;79;21013;-84
2022/05/29 08:33:38;;;;;;;3.22;1.55;;;;;;;13.64;61.11;96216.89;1795755;80;21006;-84
2022/05/29 08:36:08;;;;;;;5.08;1.75;;;;;;;13.80;60.25;96206.00;1780661;80;21025;-84
2022/05/29 08:38:37;;;;;;;4.37;1.37;;;;;;;13.97;59.75;96203.73;1793283;79;20957;-85
2022/05/29 08:41:06;;;;;;;4.17;1.70;;;;;;;14.12;58.37;96193.81;1797959;79;21016;-84
2022/05/29 08:44:03;;;;;;;2.90;1.40;;;;;;;14.29;58.95;96188.91;1781005;79;20911;-84
2022/05/29 08:46:34;;;;;;;4.58;1.90;;;;;;;14.53;58.80;96190.83;1753573;81;21334;-83
2022/05/29 08:49:02;;;;;;;4.92;1.37;;;;;;;14.80;58.75;96187.50;1777797;80;21000;-83
2022/05/29 08:51:36;;;;;;;4.12;1.45;;;;;;;14.97;57.76;96195.15;1762139;80;21307;-83
2022/05/29 08:54:13;;;;;;;4.75;1.60;;;;;;;15.04;56.51;96195.08;1778873;80;20992;-84
2022/05/29 08:56:50;;;;;;;3.52;1.95;;;;;;;15.20;57.45;96196.36;1773898;80;21083;-83
2022/05/29 08:59:38;;;;;;;2.37;1.32;;;;;;;15.39;56.34;96199.30;1779682;80;21059;-83
2022/05/29 09:02:18;;;;;;;1.95;1.00;;;;;;;15.59;56.81;96192.58;1779327;80;21352;-83
2022/05/29 09:04:50;;;;;;;3.77;1.27;;;;;;;15.75;54.35;96199.86;1761552;80;20976;-83
2022/05/29 09:07:17;;;;;;;1.87;0.82;;;;;;;15.86;53.29;96188.66;1789050;79;20935;-83
2022/05/29 09:09:53;;;;;;;2.50;0.82;;;;;;;16.00;52.56;96191.14;1782015;79;20984;-84
2022/05/29 09:12:31;;;;;;;1.85;1.02;;;;;;;16.05;50.81;96185.52;1786855;80;20963;-83
2022/05/29 09:15:07;;;;;;;2.87;1.10;;;;;;;16.13;51.27;96181.81;1781768;80;20956;-83
2022/05/29 09:17:45;;;;;;;2.52;0.90;;;;;;;16.19;50.41;96185.64;1785145;80;21046;-83
2022/05/29 09:20:37;;;;;;;4.03;1.22;;;;;;;16.27;51.47;96178.48;1782545;79;21118;-83
2022/05/29 09:23:06;;;;;;;4.45;1.00;;;;;;;16.31;49.49;96180.97;1781120;79;20986;-84
2022/05/29 09:25:42;;;;;;;2.52;1.10;;;;;;;16.14;50.33;96183.41;1780094;79;21015;-86
2022/05/29 09:28:17;;;;;;;8.00;2.33;;;;;;;16.01;50.98;96179.63;1771192;79;21038;-83
2022/05/29 09:30:43;;;;;;;4.53;1.87;;;;;;;15.85;49.09;96179.72;1778869;80;20940;-84
2022/05/29 09:33:24;;;;;;;6.50;3.52;;;;;;;15.72;49.78;96180.66;1785724;80;21015;-83
2022/05/29 09:36:19;;;;;;;3.58;1.00;;;;;;;15.73;49.09;96176.22;1783687;80;20985;-84
2022/05/29 09:39:16;;;;;;;2.42;0.70;;;;;;;16.00;48.35;96176.72;1786363;80;20987;-85
2022/05/29 09:41:52;;;;;;;2.37;1.30;;;;;;;15.96;47.72;96174.26;1767729;79;21021;-83
2022/05/29 09:44:22;;;;;;;2.45;1.40;;;;;;;16.28;47.83;96157.31;1763664;79;21378;-83
2022/05/29 09:46:50;;;;;;;3.15;1.15;;;;;;;16.41;46.76;96153.69;1766834;79;20991;-83
2022/05/29 09:49:40;;;;;;;3.72;0.90;;;;;;;16.32;46.93;96149.28;1752256;79;20979;-83
2022/05/29 09:52:23;;;;;;;4.62;1.50;;;;;;;16.27;46.92;96140.47;1736938;80;21039;-84
2022/05/29 09:55:21;;;;;;;4.12;1.40;;;;;;;16.18;45.91;96139.48;1779664;80;20994;-84
2022/05/29 09:57:52;;;;;;;2.83;1.05;;;;;;;16.04;46.95;96132.02;1759360;80;21035;-84
2022/05/29 10:00:35;;;;;;;2.98;1.10;;;;;;;15.72;46.01;96138.75;1775300;79;20916;-84
2022/05/29 10:03:02;;;;;;;2.22;0.90;;;;;;;15.60;47.79;96145.73;1779156;80;20995;-84
2022/05/29 10:05:34;;;;;;;1.12;0.65;;;;;;;15.68;48.26;96147.27;1770244;80;21025;-84
2022/05/29 10:08:26;;;;;;;2.27;1.10;;;;;;;15.65;48.95;96142.48;1767935;80;21058;-84
2022/05/29 10:10:52;;;;;;;6.40;1.37;;;;;;;15.70;48.91;96145.23;1742463;80;21339;-84
2022/05/29 10:13:36;;;;;;;2.62;1.47;;;;;;;15.91;49.35;96140.33;1775102;80;21011;-84
2022/05/29 10:16:03;;;;;;;2.80;1.37;;;;;;;15.97;49.38;96136.05;1746914;80;21083;-85
2022/05/29 10:18:32;;;;;;;3.22;1.12;;;;;;;16.03;49.25;96138.28;1778149;80;20968;-84
2022/05/29 10:21:17;;;;;;;3.17;0.80;;;;;;;15.96;50.43;96146.23;1772453;80;21062;-84
2022/05/29 10:23:58;;;;;;;2.62;0.70;;;;;;;15.87;51.54;96150.17;1771011;80;21378;-84
2022/05/29 10:26:34;;;;;;;1.95;0.70;;;;;;;15.77;49.06;96157.22;1780356;80;21017;-83
2022/05/29 10:29:02;;;;;;;3.02;1.05;;;;;;;15.58;48.89;96157.70;1781434;80;21048;-84
2022/05/29 10:31:36;;;;;;;3.08;0.82;;;;;;;15.49;48.86;96158.23;1782530;80;21062;-84
2022/05/29 10:34:14;;;;;;;1.95;0.95;;;;;;;15.45;49.21;96160.97;1776501;80;20979;-84
2022/05/29 10:36:40;;;;;;;2.42;0.72;;;;;;;15.41;50.94;96162.43;1783354;80;20975;-84
2022/05/29 10:39:24;;;;;;;1.92;1.00;;;;;;;15.40;52.25;96162.14;1785265;80;21006;-84
2022/05/29 10:41:52;;;;;;;2.47;0.88;;;;;;;15.45;52.60;96160.97;1779147;80;21049;-85
2022/05/29 10:44:44;;;;;;;3.22;0.93;;;;;;;15.43;51.24;96157.77;1785446;80;20946;-85
2022/05/29 10:47:22;;;;;;;2.02;0.98;;;;;;;15.45;49.78;96153.91;1788394;80;20975;-84
2022/05/29 10:50:02;;;;;;;2.80;0.93;;;;;;;15.83;51.20;96145.08;1783972;80;21082;-84
2022/05/29 10:52:45;;;;;;;2.85;0.70;;;;;;;16.13;47.98;96132.80;1758319;80;20979;-85
2022/05/29 10:55:44;;;;;;;3.72;1.40;;;;;;;16.21;48.74;96133.79;1765320;80;21365;-85
2022/05/29 10:58:50;;;;;;;2.67;1.30;;;;;;;16.49;48.81;96136.33;1781523;80;21329;-85
2022/05/29 11:04:38;;;;;;;3.17;0.75;;;;;;;17.03;49.23;96132.66;1799802;79;20967;-85
2022/05/29 11:08:01;;;;;;;1.92;0.93;;;;;;;17.28;47.12;96135.58;1775321;79;21401;-85
2022/05/29 11:11:00;;;;;;;3.98;1.02;;;;;;;16.97;45.72;96136.72;1750416;82;21024;-85
2022/05/29 11:13:51;;;;;;;3.85;1.10;;;;;;;16.62;44.45;96133.52;1750305;80;21016;-84
2022/05/29 11:16:31;;;;;;;3.37;0.68;;;;;;;16.35;46.63;96130.48;1750088;82;21024;-84
2022/05/29 11:19:30;;;;;;;5.20;0.65;;;;;;;16.17;45.77;96130.53;1758330;81;21115;-84
2022/05/29 11:22:30;;;;;;;2.72;0.60;;;;;;;16.43;47.90;96116.23;1702660;81;20994;-84
2022/05/29 11:25:34;;;;;;;2.72;0.78;;;;;;;16.50;44.96;96119.57;1758904;81;21110;-85
2022/05/29 11:28:08;;;;;;;3.70;0.78;;;;;;;16.42;46.62;96115.44;1758682;81;21062;-84
2022/05/29 11:31:06;;;;;;;3.25;0.90;;;;;;;16.27;44.18;96115.56;1758298;81;21075;-84
2022/05/29 11:34:12;;;;;;;4.67;1.27;;;;;;;16.19;45.16;96101.76;1758324;80;20991;-84
2022/05/29 11:37:02;;;;;;;2.12;0.80;;;;;;;16.18;44.19;96089.68;1756652;81;21413;-84
2022/05/29 11:39:38;;;;;;;2.33;0.93;;;;;;;16.08;43.51;96073.68;1757989;81;21003;-84
2022/05/29 11:42:27;;;;;;;3.92;0.72;;;;;;;15.94;43.92;96069.64;1758343;81;20999;-84
2022/05/29 11:45:04;;;;;;;3.02;1.05;;;;;;;15.87;45.24;96068.44;1758232;81;21366;-84
2022/05/29 11:53:36;;;;;;;1.85;0.68;;;;;;;16.33;45.93;96067.48;1759029;81;21051;-84
2022/05/29 11:56:05;;;;;;;1.50;0.53;;;;;;;16.37;43.78;96085.16;1758794;81;21000;-84
2022/05/29 11:58:36;;;;;;;2.33;0.70;;;;;;;16.35;45.66;96083.28;1758975;81;21012;-84
2022/05/29 12:01:25;;;;;;;2.57;0.60;;;;;;;16.32;43.72;96089.48;1758556;81;20956;-84
2022/05/29 12:04:16;;;;;;;1.65;0.72;;;;;;;16.30;45.06;96092.34;1735444;82;21331;-84
2022/05/29 12:07:05;;;;;;;0.85;0.40;;;;;;;16.36;45.65;96088.01;1759262;81;21299;-84
2022/05/29 12:09:44;;;;;;;0.95;0.47;;;;;;;16.42;43.58;96088.41;1758905;81;21003;-84
2022/05/29 12:12:17;;;;;;;2.08;0.72;;;;;;;16.39;43.62;96088.35;1758851;81;20987;-84
2022/05/29 12:14:56;;;;;;;3.87;1.45;;;;;;;16.35;41.77;96091.14;1759003;81;20960;-84
2022/05/29 12:17:44;;;;;;;1.45;0.50;;;;;;;16.29;42.31;96089.44;1758936;82;20975;-84
2022/05/29 12:20:30;;;;;;;1.42;0.50;;;;;;;16.36;40.86;96083.56;1758887;82;21347;-84
2022/05/29 12:22:58;;;;;;;1.98;0.60;;;;;;;16.49;42.52;96080.75;1759257;81;21003;-84
2022/05/29 12:25:48;;;;;;;1.30;0.37;;;;;;;16.60;39.62;96077.86;1759023;82;21343;-84
2022/05/29 12:28:50;;;;;;;1.05;0.57;;;;;;;16.66;38.98;96081.39;1759001;81;21082;-84
2022/05/29 12:31:45;;;;;;;2.45;0.70;;;;;;;17.02;40.93;96080.40;1759118;82;21028;-84
2022/05/29 12:34:28;;;;;;;1.77;0.72;;;;;;;17.43;38.97;96075.51;1758004;81;21043;-84
2022/05/29 12:37:17;;;;;;;1.82;0.50;;;;;;;17.65;37.85;96076.98;1758802;82;20971;-84
2022/05/29 12:40:40;;;;;;;1.70;0.70;;;;;;;17.78;38.74;96072.80;1758694;81;21014;-84